CFG3WZ EDDH-EDDF
Flight info
| Callsign | CFG3WZ |
|---|---|
| Flight time | 0h 48m |
| Altitude | 30000 |
| Route | AMLUH2G AMLUH M852 DENIX DCT RIMET/N0432F310 T157 KOKEB/N0389F230 T157 KERAX KERAX5A |
| Aircraft | E190/M-SDE3GILORVW/S |
Departure
| Time | 2026-04-16 14:26 |
|---|---|
| Airport | Hamburg Helmut Schmidt Airport (EDDH) |
Arrival
| Time | 2026-04-16 15:14 |
|---|---|
| Airport | Frankfurt Main Airport (EDDF) |
| Time | Latitude | Longitude | Altitude | Speed | Heading |
|---|---|---|---|---|---|
| 2026-04-16 14:03 | 53.63332 | 10.00346 | 61 ft | 0 kts | 86° |
| 2026-04-16 14:18 | 53.63332 | 10.00330 | 61 ft | 2 kts | 86° |
| 2026-04-16 14:18 | 53.63331 | 10.00305 | 61 ft | 2 kts | 86° |
| 2026-04-16 14:19 | 53.63329 | 10.00279 | 61 ft | 2 kts | 86° |
| 2026-04-16 14:19 | 53.63328 | 10.00254 | 61 ft | 2 kts | 89° |
| 2026-04-16 14:19 | 53.63335 | 10.00234 | 61 ft | 2 kts | 151° |
| 2026-04-16 14:19 | 53.63342 | 10.00230 | 61 ft | 0 kts | 181° |
| 2026-04-16 14:20 | 53.63348 | 10.00230 | 61 ft | 0 kts | 176° |
| 2026-04-16 14:23 | 53.63340 | 10.00231 | 61 ft | 2 kts | 176° |
| 2026-04-16 14:23 | 53.63310 | 10.00234 | 61 ft | 6 kts | 176° |
| 2026-04-16 14:23 | 53.63248 | 10.00242 | 61 ft | 11 kts | 176° |
| 2026-04-16 14:24 | 53.63153 | 10.00252 | 61 ft | 15 kts | 178° |
| 2026-04-16 14:24 | 53.63039 | 10.00231 | 61 ft | 17 kts | 212° |
| 2026-04-16 14:24 | 53.62939 | 10.00123 | 61 ft | 15 kts | 212° |
| 2026-04-16 14:24 | 53.62869 | 10.00032 | 61 ft | 12 kts | 231° |
| 2026-04-16 14:25 | 53.62825 | 9.99904 | 61 ft | 12 kts | 244° |
| 2026-04-16 14:25 | 53.62850 | 9.99764 | 61 ft | 24 kts | 328° |
| 2026-04-16 14:25 | 53.63277 | 9.99386 | 61 ft | 111 kts | 331° |
| 2026-04-16 14:25 | 53.64175 | 9.98619 | 237 ft | 164 kts | 333° |
| 2026-04-16 14:26 | 53.65152 | 9.97837 | 1315 ft | 155 kts | 333° |
| 2026-04-16 14:26 | 53.66101 | 9.97039 | 2049 ft | 160 kts | 330° |
| 2026-04-16 14:26 | 53.67059 | 9.96203 | 2705 ft | 155 kts | 330° |
| 2026-04-16 14:26 | 53.68029 | 9.95355 | 3414 ft | 160 kts | 330° |
| 2026-04-16 14:27 | 53.69058 | 9.94743 | 4124 ft | 165 kts | 354° |
| 2026-04-16 14:27 | 53.70198 | 9.94722 | 4803 ft | 171 kts | 356° |
| 2026-04-16 14:27 | 53.71450 | 9.95312 | 5068 ft | 210 kts | 35° |
| 2026-04-16 14:27 | 53.72275 | 9.97536 | 5371 ft | 245 kts | 79° |
| 2026-04-16 14:28 | 53.72035 | 10.00398 | 5891 ft | 260 kts | 120° |
| 2026-04-16 14:28 | 53.70807 | 10.02616 | 6608 ft | 263 kts | 150° |
| 2026-04-16 14:28 | 53.69176 | 10.04117 | 7179 ft | 280 kts | 156° |
| 2026-04-16 14:28 | 53.67386 | 10.05575 | 7937 ft | 291 kts | 158° |
| 2026-04-16 14:29 | 53.65550 | 10.07002 | 8868 ft | 294 kts | 158° |
| 2026-04-16 14:29 | 53.63703 | 10.08402 | 9862 ft | 294 kts | 159° |
| 2026-04-16 14:29 | 53.61834 | 10.09806 | 10787 ft | 296 kts | 159° |
| 2026-04-16 14:29 | 53.59938 | 10.11219 | 11523 ft | 305 kts | 159° |
| 2026-04-16 14:30 | 53.57967 | 10.12682 | 12142 ft | 318 kts | 159° |
| 2026-04-16 14:30 | 53.55920 | 10.14198 | 12772 ft | 329 kts | 159° |
| 2026-04-16 14:30 | 53.53818 | 10.15753 | 13512 ft | 336 kts | 159° |
| 2026-04-16 14:30 | 53.51663 | 10.17345 | 14350 ft | 340 kts | 159° |
| 2026-04-16 14:31 | 53.49506 | 10.18937 | 15221 ft | 343 kts | 159° |
| 2026-04-16 14:31 | 53.47330 | 10.20540 | 16040 ft | 346 kts | 159° |
| 2026-04-16 14:31 | 53.45122 | 10.22165 | 16805 ft | 351 kts | 159° |
| 2026-04-16 14:31 | 53.42876 | 10.23817 | 17595 ft | 355 kts | 159° |
| 2026-04-16 14:32 | 53.40604 | 10.25485 | 18339 ft | 360 kts | 159° |
| 2026-04-16 14:32 | 53.38317 | 10.27163 | 19049 ft | 364 kts | 160° |
| 2026-04-16 14:32 | 53.35989 | 10.28868 | 19760 ft | 369 kts | 160° |
| 2026-04-16 14:32 | 53.33624 | 10.30599 | 20451 ft | 374 kts | 160° |
| 2026-04-16 14:33 | 53.31245 | 10.32337 | 21134 ft | 379 kts | 160° |
| 2026-04-16 14:33 | 53.28804 | 10.34119 | 21807 ft | 384 kts | 160° |
| 2026-04-16 14:33 | 53.26360 | 10.35900 | 22458 ft | 388 kts | 160° |
| 2026-04-16 14:33 | 53.23884 | 10.37703 | 23102 ft | 393 kts | 160° |
| 2026-04-16 14:34 | 53.21368 | 10.39532 | 23733 ft | 397 kts | 160° |
| 2026-04-16 14:34 | 53.18841 | 10.41367 | 24323 ft | 403 kts | 160° |
| 2026-04-16 14:34 | 53.16245 | 10.43250 | 24959 ft | 407 kts | 160° |
| 2026-04-16 14:34 | 53.13629 | 10.44954 | 25549 ft | 405 kts | 172° |
| 2026-04-16 14:35 | 53.10881 | 10.45271 | 26133 ft | 398 kts | 187° |
| 2026-04-16 14:35 | 53.08140 | 10.44993 | 26746 ft | 400 kts | 189° |
| 2026-04-16 14:35 | 53.05363 | 10.44644 | 27341 ft | 403 kts | 189° |
| 2026-04-16 14:35 | 53.02566 | 10.44270 | 27925 ft | 407 kts | 190° |
| 2026-04-16 14:36 | 52.99731 | 10.43885 | 28477 ft | 411 kts | 190° |
| 2026-04-16 14:36 | 52.96888 | 10.43497 | 29034 ft | 414 kts | 190° |
| 2026-04-16 14:36 | 52.94010 | 10.43103 | 29585 ft | 418 kts | 190° |
| 2026-04-16 14:36 | 52.91105 | 10.42707 | 30086 ft | 421 kts | 190° |
| 2026-04-16 14:37 | 52.88124 | 10.42299 | 30162 ft | 434 kts | 190° |
| 2026-04-16 14:37 | 52.85184 | 10.41898 | 30184 ft | 448 kts | 190° |
| 2026-04-16 14:37 | 52.79070 | 10.41070 | 30180 ft | 452 kts | 190° |
| 2026-04-16 14:38 | 52.72909 | 10.40236 | 30178 ft | 452 kts | 190° |
| 2026-04-16 14:38 | 52.66678 | 10.39394 | 30178 ft | 452 kts | 190° |
| 2026-04-16 14:39 | 52.60403 | 10.38549 | 30182 ft | 453 kts | 190° |
| 2026-04-16 14:39 | 52.54127 | 10.37706 | 30180 ft | 453 kts | 190° |
| 2026-04-16 14:40 | 52.47892 | 10.36871 | 30184 ft | 454 kts | 190° |
| 2026-04-16 14:40 | 52.41592 | 10.36030 | 30188 ft | 453 kts | 190° |
| 2026-04-16 14:41 | 52.35345 | 10.35198 | 30189 ft | 455 kts | 191° |
| 2026-04-16 14:41 | 52.29067 | 10.34364 | 30190 ft | 454 kts | 191° |
| 2026-04-16 14:42 | 52.22757 | 10.33529 | 30193 ft | 454 kts | 191° |
| 2026-04-16 14:42 | 52.16463 | 10.32697 | 30193 ft | 456 kts | 191° |
| 2026-04-16 14:43 | 52.10203 | 10.31874 | 30194 ft | 455 kts | 191° |
| 2026-04-16 14:43 | 52.03878 | 10.31042 | 30197 ft | 456 kts | 191° |
| 2026-04-16 14:44 | 51.97575 | 10.30218 | 30191 ft | 455 kts | 191° |
| 2026-04-16 14:44 | 51.91256 | 10.29393 | 30193 ft | 456 kts | 191° |
| 2026-04-16 14:45 | 51.84950 | 10.28571 | 30192 ft | 456 kts | 191° |
| 2026-04-16 14:45 | 51.79085 | 10.27810 | 30182 ft | 456 kts | 191° |
| 2026-04-16 14:46 | 51.72895 | 10.27009 | 30187 ft | 455 kts | 191° |
| 2026-04-16 14:46 | 51.66522 | 10.26185 | 30192 ft | 457 kts | 191° |
| 2026-04-16 14:47 | 51.60197 | 10.25372 | 30184 ft | 453 kts | 191° |
| 2026-04-16 14:47 | 51.57115 | 10.24978 | 30183 ft | 442 kts | 191° |
| 2026-04-16 14:47 | 51.54053 | 10.24584 | 30185 ft | 440 kts | 191° |
| 2026-04-16 14:48 | 51.47960 | 10.23802 | 30009 ft | 443 kts | 191° |
| 2026-04-16 14:48 | 51.44873 | 10.23408 | 29525 ft | 442 kts | 191° |
| 2026-04-16 14:48 | 51.41849 | 10.23023 | 29043 ft | 436 kts | 191° |
| 2026-04-16 14:49 | 51.38822 | 10.22636 | 28569 ft | 432 kts | 191° |
| 2026-04-16 14:49 | 51.35852 | 10.22258 | 28086 ft | 429 kts | 191° |
| 2026-04-16 14:49 | 51.32886 | 10.21893 | 27614 ft | 428 kts | 189° |
| 2026-04-16 14:49 | 51.29921 | 10.21845 | 27144 ft | 427 kts | 186° |
| 2026-04-16 14:50 | 51.26951 | 10.21804 | 26662 ft | 424 kts | 186° |
| 2026-04-16 14:50 | 51.24034 | 10.21750 | 26202 ft | 420 kts | 186° |
| 2026-04-16 14:50 | 51.21116 | 10.21692 | 25739 ft | 418 kts | 186° |
| 2026-04-16 14:50 | 51.18207 | 10.21634 | 25277 ft | 415 kts | 186° |
| 2026-04-16 14:51 | 51.15361 | 10.21575 | 24816 ft | 412 kts | 186° |
| 2026-04-16 14:51 | 51.12482 | 10.21521 | 24371 ft | 411 kts | 186° |
| 2026-04-16 14:51 | 51.09645 | 10.21470 | 23910 ft | 407 kts | 186° |
| 2026-04-16 14:51 | 51.06827 | 10.21419 | 23470 ft | 404 kts | 186° |
| 2026-04-16 14:53 | 50.87927 | 10.19431 | 20476 ft | 365 kts | 219° |
| 2026-04-16 14:53 | 50.86224 | 10.16832 | 20008 ft | 356 kts | 234° |
| 2026-04-16 14:54 | 50.84686 | 10.13796 | 19597 ft | 354 kts | 236° |
| 2026-04-16 14:54 | 50.83258 | 10.10852 | 19213 ft | 350 kts | 237° |
| 2026-04-16 14:54 | 50.81811 | 10.07819 | 18828 ft | 349 kts | 237° |
| 2026-04-16 14:54 | 50.80448 | 10.04948 | 18465 ft | 347 kts | 237° |
| 2026-04-16 14:55 | 50.79047 | 10.01992 | 18098 ft | 346 kts | 237° |
| 2026-04-16 14:55 | 50.77600 | 9.98940 | 17712 ft | 343 kts | 237° |
| 2026-04-16 14:55 | 50.76185 | 9.95956 | 17337 ft | 343 kts | 236° |
| 2026-04-16 14:55 | 50.74760 | 9.92957 | 16962 ft | 341 kts | 237° |
| 2026-04-16 14:56 | 50.73342 | 9.89976 | 16583 ft | 339 kts | 236° |
| 2026-04-16 14:56 | 50.71928 | 9.87005 | 16216 ft | 338 kts | 236° |
| 2026-04-16 14:56 | 50.70526 | 9.84060 | 15839 ft | 338 kts | 236° |
| 2026-04-16 14:56 | 50.69111 | 9.81096 | 15463 ft | 335 kts | 236° |
| 2026-04-16 14:57 | 50.67733 | 9.78209 | 15101 ft | 334 kts | 236° |
| 2026-04-16 14:57 | 50.66327 | 9.75268 | 14732 ft | 333 kts | 236° |
| 2026-04-16 14:57 | 50.64940 | 9.72370 | 14365 ft | 331 kts | 236° |
| 2026-04-16 14:57 | 50.63569 | 9.69510 | 14005 ft | 330 kts | 235° |
| 2026-04-16 14:58 | 50.61864 | 9.67136 | 13641 ft | 334 kts | 211° |
| 2026-04-16 14:58 | 50.57546 | 9.64336 | 12806 ft | 334 kts | 204° |
| 2026-04-16 14:58 | 50.55402 | 9.63020 | 12391 ft | 331 kts | 204° |
| 2026-04-16 14:59 | 50.53258 | 9.61708 | 11969 ft | 329 kts | 204° |
| 2026-04-16 14:59 | 50.51165 | 9.60431 | 11551 ft | 323 kts | 204° |
| 2026-04-16 14:59 | 50.49109 | 9.59179 | 11126 ft | 315 kts | 204° |
| 2026-04-16 14:59 | 50.47115 | 9.57891 | 10691 ft | 306 kts | 212° |
| 2026-04-16 15:00 | 50.45651 | 9.55629 | 10278 ft | 292 kts | 244° |
| 2026-04-16 15:00 | 50.45204 | 9.52661 | 9893 ft | 280 kts | 276° |
| 2026-04-16 15:00 | 50.45846 | 9.49845 | 9513 ft | 273 kts | 302° |
| 2026-04-16 15:00 | 50.46556 | 9.47132 | 9117 ft | 272 kts | 275° |
| 2026-04-16 15:01 | 50.46186 | 9.44249 | 8751 ft | 274 kts | 243° |
| 2026-04-16 15:01 | 50.45129 | 9.41776 | 8383 ft | 276 kts | 236° |
| 2026-04-16 15:01 | 50.44156 | 9.39228 | 7979 ft | 274 kts | 243° |
| 2026-04-16 15:01 | 50.43266 | 9.36625 | 7565 ft | 272 kts | 243° |
| 2026-04-16 15:02 | 50.42381 | 9.34028 | 7232 ft | 267 kts | 243° |
| 2026-04-16 15:02 | 50.41518 | 9.31485 | 7203 ft | 265 kts | 243° |
| 2026-04-16 15:02 | 50.40690 | 9.29049 | 7197 ft | 268 kts | 243° |
| 2026-04-16 15:02 | 50.39706 | 9.26562 | 7185 ft | 272 kts | 225° |
| 2026-04-16 15:03 | 50.38055 | 9.25134 | 7218 ft | 275 kts | 196° |
| 2026-04-16 15:03 | 50.36318 | 9.24351 | 7054 ft | 277 kts | 199° |
| 2026-04-16 15:03 | 50.34469 | 9.23442 | 6753 ft | 275 kts | 199° |
| 2026-04-16 15:03 | 50.32663 | 9.22544 | 6458 ft | 272 kts | 199° |
| 2026-04-16 15:04 | 50.30905 | 9.21674 | 6169 ft | 270 kts | 199° |
| 2026-04-16 15:04 | 50.29126 | 9.20789 | 5876 ft | 269 kts | 199° |
| 2026-04-16 15:04 | 50.27354 | 9.19900 | 5579 ft | 267 kts | 199° |
| 2026-04-16 15:04 | 50.25581 | 9.19010 | 5282 ft | 266 kts | 199° |
| 2026-04-16 15:05 | 50.23840 | 9.18131 | 4958 ft | 267 kts | 199° |
| 2026-04-16 15:05 | 50.22067 | 9.17232 | 4486 ft | 267 kts | 199° |
| 2026-04-16 15:05 | 50.20329 | 9.16350 | 4221 ft | 257 kts | 200° |
| 2026-04-16 15:05 | 50.18761 | 9.15089 | 4209 ft | 257 kts | 212° |
| 2026-04-16 15:06 | 50.17276 | 9.13633 | 4186 ft | 243 kts | 213° |
| 2026-04-16 15:06 | 50.15920 | 9.12230 | 4170 ft | 227 kts | 225° |
| 2026-04-16 15:06 | 50.15236 | 9.10087 | 4234 ft | 226 kts | 264° |
| 2026-04-16 15:06 | 50.15055 | 9.07632 | 4233 ft | 229 kts | 260° |
| 2026-04-16 15:07 | 50.14733 | 9.05217 | 4219 ft | 228 kts | 256° |
| 2026-04-16 15:07 | 50.14300 | 9.02815 | 4205 ft | 229 kts | 253° |
| 2026-04-16 15:07 | 50.13820 | 9.00470 | 4185 ft | 229 kts | 251° |
| 2026-04-16 15:07 | 50.13307 | 8.98112 | 4171 ft | 228 kts | 251° |
| 2026-04-16 15:08 | 50.12784 | 8.95790 | 4155 ft | 228 kts | 250° |
| 2026-04-16 15:08 | 50.12238 | 8.93415 | 4139 ft | 228 kts | 250° |
| 2026-04-16 15:08 | 50.11701 | 8.91102 | 4122 ft | 228 kts | 250° |
| 2026-04-16 15:08 | 50.11163 | 8.88802 | 4106 ft | 228 kts | 250° |
| 2026-04-16 15:09 | 50.10617 | 8.86478 | 4017 ft | 230 kts | 250° |
| 2026-04-16 15:09 | 50.10061 | 8.84120 | 3746 ft | 230 kts | 250° |
| 2026-04-16 15:09 | 50.09517 | 8.81817 | 3463 ft | 228 kts | 250° |
| 2026-04-16 15:09 | 50.08971 | 8.79512 | 3169 ft | 224 kts | 250° |
| 2026-04-16 15:10 | 50.08441 | 8.77270 | 2895 ft | 214 kts | 250° |
| 2026-04-16 15:10 | 50.07961 | 8.75245 | 2607 ft | 185 kts | 250° |
| 2026-04-16 15:10 | 50.07674 | 8.73492 | 2493 ft | 157 kts | 261° |
| 2026-04-16 15:10 | 50.07530 | 8.71903 | 2271 ft | 138 kts | 263° |
| 2026-04-16 15:11 | 50.07329 | 8.70480 | 1904 ft | 134 kts | 254° |
| 2026-04-16 15:11 | 50.07031 | 8.69159 | 1722 ft | 128 kts | 250° |
| 2026-04-16 15:11 | 50.06728 | 8.67877 | 1550 ft | 126 kts | 250° |
| 2026-04-16 15:11 | 50.06417 | 8.66605 | 1434 ft | 127 kts | 250° |
| 2026-04-16 15:12 | 50.06103 | 8.65283 | 1246 ft | 129 kts | 249° |
| 2026-04-16 15:12 | 50.05777 | 8.63976 | 1099 ft | 128 kts | 249° |
| 2026-04-16 15:12 | 50.05467 | 8.62645 | 913 ft | 131 kts | 250° |
| 2026-04-16 15:12 | 50.05145 | 8.61341 | 760 ft | 129 kts | 248° |
| 2026-04-16 15:13 | 50.04827 | 8.60014 | 588 ft | 130 kts | 250° |
| 2026-04-16 15:13 | 50.04516 | 8.58706 | 416 ft | 128 kts | 249° |
| 2026-04-16 15:13 | 50.04231 | 8.57512 | 367 ft | 101 kts | 250° |
| 2026-04-16 15:13 | 50.04045 | 8.56716 | 357 ft | 57 kts | 248° |
| 2026-04-16 15:14 | 50.04001 | 8.56342 | 354 ft | 26 kts | 278° |
| 2026-04-16 15:14 | 50.04020 | 8.56177 | 354 ft | 8 kts | 287° |
| 2026-04-16 15:14 | 50.04034 | 8.56143 | 355 ft | 1 kts | 327° |
| 2026-04-16 15:14 | 50.04038 | 8.56140 | 355 ft | 0 kts | 337° |
| 2026-04-16 15:15 | 50.04039 | 8.56139 | 355 ft | 0 kts | 339° |
| 2026-04-16 15:15 | 50.04053 | 8.56135 | 355 ft | 4 kts | 357° |
| 2026-04-16 15:15 | 50.04102 | 8.56171 | 356 ft | 12 kts | 58° |
| 2026-04-16 15:16 | 50.04137 | 8.56312 | 357 ft | 14 kts | 71° |
| 2026-04-16 15:16 | 50.04172 | 8.56456 | 358 ft | 13 kts | 70° |
| 2026-04-16 15:16 | 50.04204 | 8.56588 | 361 ft | 12 kts | 70° |
| 2026-04-16 15:16 | 50.04233 | 8.56705 | 362 ft | 11 kts | 70° |
| 2026-04-16 15:17 | 50.04258 | 8.56811 | 364 ft | 10 kts | 70° |
| 2026-04-16 15:17 | 50.04283 | 8.56918 | 364 ft | 10 kts | 69° |
| 2026-04-16 15:17 | 50.04313 | 8.57035 | 365 ft | 11 kts | 69° |
| 2026-04-16 15:17 | 50.04342 | 8.57157 | 367 ft | 12 kts | 71° |
| 2026-04-16 15:18 | 50.04370 | 8.57284 | 368 ft | 12 kts | 71° |
| 2026-04-16 15:18 | 50.04401 | 8.57415 | 369 ft | 13 kts | 70° |
| 2026-04-16 15:18 | 50.04434 | 8.57548 | 371 ft | 13 kts | 69° |
| 2026-04-16 15:18 | 50.04468 | 8.57690 | 372 ft | 14 kts | 71° |
| 2026-04-16 15:19 | 50.04504 | 8.57839 | 373 ft | 15 kts | 69° |
| 2026-04-16 15:19 | 50.04540 | 8.57983 | 374 ft | 13 kts | 63° |
| 2026-04-16 15:19 | 50.04613 | 8.58016 | 375 ft | 12 kts | 339° |
| 2026-04-16 15:19 | 50.04694 | 8.57970 | 376 ft | 11 kts | 341° |
| 2026-04-16 15:20 | 50.04771 | 8.57930 | 377 ft | 11 kts | 342° |
| 2026-04-16 15:20 | 50.04839 | 8.57871 | 377 ft | 8 kts | 315° |
| 2026-04-16 15:20 | 50.04881 | 8.57850 | 378 ft | 3 kts | 13° |
| 2026-04-16 15:20 | 50.04903 | 8.57863 | 378 ft | 3 kts | 24° |
| 2026-04-16 15:21 | 50.04920 | 8.57874 | 378 ft | 2 kts | 21° |
| 2026-04-16 15:21 | 50.04928 | 8.57879 | 378 ft | 0 kts | 21° |
| 2026-04-16 15:21 | 50.04929 | 8.57880 | 378 ft | 0 kts | 21° |